sensor_id;sensor_type;location;lat;lon;timestamp;P1;durP1;ratioP1;P2;durP2;ratioP2
19621;SDS011;9958;33.196;-97.114;2022-12-07T00:01:27;2.17;;;1.92;;
19621;SDS011;9958;33.196;-97.114;2022-12-07T00:03:59;1.60;;;1.50;;
19621;SDS011;9958;33.196;-97.114;2022-12-07T00:06:31;2.17;;;1.95;;
19621;SDS011;9958;33.196;-97.114;2022-12-07T00:09:00;2.20;;;1.80;;
19621;SDS011;9958;33.196;-97.114;2022-12-07T00:11:30;2.97;;;1.70;;
19621;SDS011;9958;33.196;-97.114;2022-12-07T00:14:00;2.03;;;1.92;;
19621;SDS011;9958;33.196;-97.114;2022-12-07T00:16:30;1.63;;;1.52;;
19621;SDS011;9958;33.196;-97.114;2022-12-07T00:19:01;2.25;;;1.55;;
19621;SDS011;9958;33.196;-97.114;2022-12-07T00:21:30;1.73;;;1.63;;
19621;SDS011;9958;33.196;-97.114;2022-12-07T00:23:59;4.55;;;1.83;;
19621;SDS011;9958;33.196;-97.114;2022-12-07T00:26:29;1.95;;;1.60;;
19621;SDS011;9958;33.196;-97.114;2022-12-07T00:28:58;1.77;;;1.63;;
19621;SDS011;9958;33.196;-97.114;2022-12-07T00:31:28;2.10;;;1.75;;
19621;SDS011;9958;33.196;-97.114;2022-12-07T00:33:58;2.65;;;1.98;;
19621;SDS011;9958;33.196;-97.114;2022-12-07T00:36:28;1.90;;;1.80;;
19621;SDS011;9958;33.196;-97.114;2022-12-07T00:38:57;2.40;;;1.80;;
19621;SDS011;9958;33.196;-97.114;2022-12-07T00:41:28;2.75;;;1.90;;
19621;SDS011;9958;33.196;-97.114;2022-12-07T00:43:56;2.72;;;1.85;;
19621;SDS011;9958;33.196;-97.114;2022-12-07T00:46:25;2.95;;;2.00;;
19621;SDS011;9958;33.196;-97.114;2022-12-07T00:48:53;2.33;;;1.85;;
19621;SDS011;9958;33.196;-97.114;2022-12-07T00:51:24;4.15;;;2.20;;
19621;SDS011;9958;33.196;-97.114;2022-12-07T00:53:52;1.85;;;1.75;;
19621;SDS011;9958;33.196;-97.114;2022-12-07T00:56:21;2.88;;;1.73;;
19621;SDS011;9958;33.196;-97.114;2022-12-07T00:58:51;2.00;;;1.80;;
19621;SDS011;9958;33.196;-97.114;2022-12-07T01:01:21;2.95;;;1.80;;
19621;SDS011;9958;33.196;-97.114;2022-12-07T01:03:50;2.13;;;1.92;;
19621;SDS011;9958;33.196;-97.114;2022-12-07T01:06:19;2.13;;;1.92;;
19621;SDS011;9958;33.196;-97.114;2022-12-07T01:08:50;3.97;;;2.03;;
19621;SDS011;9958;33.196;-97.114;2022-12-07T01:11:19;3.45;;;2.50;;
19621;SDS011;9958;33.196;-97.114;2022-12-07T01:13:49;2.13;;;1.90;;
19621;SDS011;9958;33.196;-97.114;2022-12-07T01:16:18;2.05;;;1.83;;
19621;SDS011;9958;33.196;-97.114;2022-12-07T01:18:48;1.85;;;1.75;;
19621;SDS011;9958;33.196;-97.114;2022-12-07T01:21:18;3.03;;;1.90;;
19621;SDS011;9958;33.196;-97.114;2022-12-07T01:23:48;2.10;;;1.88;;
19621;SDS011;9958;33.196;-97.114;2022-12-07T01:26:19;2.60;;;1.75;;
19621;SDS011;9958;33.196;-97.114;2022-12-07T01:28:49;2.53;;;2.17;;
19621;SDS011;9958;33.196;-97.114;2022-12-07T01:31:20;3.38;;;2.15;;
19621;SDS011;9958;33.196;-97.114;2022-12-07T01:33:51;4.50;;;1.95;;
19621;SDS011;9958;33.196;-97.114;2022-12-07T01:36:22;2.13;;;1.92;;
19621;SDS011;9958;33.196;-97.114;2022-12-07T01:38:54;2.53;;;2.33;;
19621;SDS011;9958;33.196;-97.114;2022-12-07T01:41:24;2.20;;;1.80;;
19621;SDS011;9958;33.196;-97.114;2022-12-07T01:44:10;2.13;;;1.90;;
19621;SDS011;9958;33.196;-97.114;2022-12-07T01:46:47;2.95;;;2.47;;
19621;SDS011;9958;33.196;-97.114;2022-12-07T01:49:17;2.47;;;2.22;;
19621;SDS011;9958;33.196;-97.114;2022-12-07T01:51:50;2.25;;;2.05;;
19621;SDS011;9958;33.196;-97.114;2022-12-07T01:54:21;2.25;;;1.98;;
19621;SDS011;9958;33.196;-97.114;2022-12-07T01:56:50;2.75;;;1.92;;
19621;SDS011;9958;33.196;-97.114;2022-12-07T01:59:21;2.13;;;1.92;;
19621;SDS011;9958;33.196;-97.114;2022-12-07T02:01:52;3.17;;;2.20;;
19621;SDS011;9958;33.196;-97.114;2022-12-07T02:04:21;2.22;;;2.03;;
19621;SDS011;9958;33.196;-97.114;2022-12-07T02:06:50;4.32;;;2.42;;
19621;SDS011;9958;33.196;-97.114;2022-12-07T02:09:22;2.83;;;2.60;;
19621;SDS011;9958;33.196;-97.114;2022-12-07T02:11:50;2.80;;;2.38;;
19621;SDS011;9958;33.196;-97.114;2022-12-07T02:14:19;2.92;;;2.30;;
19621;SDS011;9958;33.196;-97.114;2022-12-07T02:16:51;3.00;;;2.30;;
19621;SDS011;9958;33.196;-97.114;2022-12-07T02:22:48;2.47;;;2.08;;
19621;SDS011;9958;33.196;-97.114;2022-12-07T02:25:50;3.17;;;1.90;;
19621;SDS011;9958;33.196;-97.114;2022-12-07T02:28:59;3.17;;;2.50;;
19621;SDS011;9958;33.196;-97.114;2022-12-07T02:31:43;6.22;;;2.83;;
19621;SDS011;9958;33.196;-97.114;2022-12-07T02:34:19;3.83;;;1.98;;
19621;SDS011;9958;33.196;-97.114;2022-12-07T02:36:53;3.15;;;2.38;;
19621;SDS011;9958;33.196;-97.114;2022-12-07T02:39:26;4.90;;;2.45;;
19621;SDS011;9958;33.196;-97.114;2022-12-07T02:42:02;2.60;;;2.40;;
19621;SDS011;9958;33.196;-97.114;2022-12-07T02:44:38;2.35;;;2.15;;
19621;SDS011;9958;33.196;-97.114;2022-12-07T02:47:09;4.15;;;2.35;;
19621;SDS011;9958;33.196;-97.114;2022-12-07T02:49:40;4.57;;;2.50;;
19621;SDS011;9958;33.196;-97.114;2022-12-07T02:52:10;3.53;;;2.70;;
19621;SDS011;9958;33.196;-97.114;2022-12-07T02:54:38;3.25;;;2.58;;
19621;SDS011;9958;33.196;-97.114;2022-12-07T02:57:14;2.83;;;2.53;;
19621;SDS011;9958;33.196;-97.114;2022-12-07T03:00:09;2.85;;;2.60;;
19621;SDS011;9958;33.196;-97.114;2022-12-07T03:02:44;3.33;;;2.33;;
19621;SDS011;9958;33.196;-97.114;2022-12-07T03:05:27;5.05;;;2.70;;
19621;SDS011;9958;33.196;-97.114;2022-12-07T03:08:18;4.72;;;2.97;;
19621;SDS011;9958;33.196;-97.114;2022-12-07T03:10:56;4.30;;;2.60;;
19621;SDS011;9958;33.196;-97.114;2022-12-07T03:13:28;4.55;;;2.60;;
19621;SDS011;9958;33.196;-97.114;2022-12-07T03:16:05;3.33;;;2.97;;
19621;SDS011;9958;33.196;-97.114;2022-12-07T03:18:40;4.85;;;3.67;;
19621;SDS011;9958;33.196;-97.114;2022-12-07T03:21:14;4.57;;;3.58;;
19621;SDS011;9958;33.196;-97.114;2022-12-07T03:23:45;5.45;;;3.17;;
19621;SDS011;9958;33.196;-97.114;2022-12-07T03:26:17;4.13;;;3.58;;
19621;SDS011;9958;33.196;-97.114;2022-12-07T03:28:50;5.05;;;3.60;;
19621;SDS011;9958;33.196;-97.114;2022-12-07T03:31:25;5.28;;;3.90;;
19621;SDS011;9958;33.196;-97.114;2022-12-07T03:33:57;4.07;;;3.40;;
19621;SDS011;9958;33.196;-97.114;2022-12-07T03:36:31;4.78;;;3.75;;
19621;SDS011;9958;33.196;-97.114;2022-12-07T03:39:04;7.20;;;4.10;;
19621;SDS011;9958;33.196;-97.114;2022-12-07T03:41:44;4.50;;;3.70;;
19621;SDS011;9958;33.196;-97.114;2022-12-07T03:44:13;4.78;;;3.13;;
19621;SDS011;9958;33.196;-97.114;2022-12-07T03:46:44;4.32;;;3.50;;
19621;SDS011;9958;33.196;-97.114;2022-12-07T03:49:22;4.93;;;3.60;;
19621;SDS011;9958;33.196;-97.114;2022-12-07T03:51:54;5.70;;;3.88;;
19621;SDS011;9958;33.196;-97.114;2022-12-07T03:54:30;6.45;;;4.22;;
19621;SDS011;9958;33.196;-97.114;2022-12-07T03:57:02;6.35;;;4.20;;
19621;SDS011;9958;33.196;-97.114;2022-12-07T03:59:31;4.78;;;3.70;;
19621;SDS011;9958;33.196;-97.114;2022-12-07T04:02:04;7.00;;;4.55;;
19621;SDS011;9958;33.196;-97.114;2022-12-07T04:04:33;5.50;;;4.30;;
19621;SDS011;9958;33.196;-97.114;2022-12-07T04:07:02;4.70;;;3.95;;
19621;SDS011;9958;33.196;-97.114;2022-12-07T04:09:30;7.50;;;4.50;;
19621;SDS011;9958;33.196;-97.114;2022-12-07T04:11:59;8.15;;;5.28;;
19621;SDS011;9958;33.196;-97.114;2022-12-07T04:14:27;6.78;;;5.10;;
19621;SDS011;9958;33.196;-97.114;2022-12-07T04:16:56;6.90;;;5.05;;
19621;SDS011;9958;33.196;-97.114;2022-12-07T04:19:27;5.82;;;4.80;;
19621;SDS011;9958;33.196;-97.114;2022-12-07T04:21:57;7.78;;;5.28;;
19621;SDS011;9958;33.196;-97.114;2022-12-07T04:24:27;6.35;;;5.53;;
19621;SDS011;9958;33.196;-97.114;2022-12-07T04:26:55;8.35;;;5.45;;
19621;SDS011;9958;33.196;-97.114;2022-12-07T04:29:23;6.15;;;4.85;;
19621;SDS011;9958;33.196;-97.114;2022-12-07T04:31:52;7.20;;;4.82;;
19621;SDS011;9958;33.196;-97.114;2022-12-07T04:34:21;6.47;;;4.85;;
19621;SDS011;9958;33.196;-97.114;2022-12-07T04:36:50;8.32;;;5.15;;
19621;SDS011;9958;33.196;-97.114;2022-12-07T04:39:20;7.78;;;5.68;;
19621;SDS011;9958;33.196;-97.114;2022-12-07T04:41:50;8.10;;;5.22;;
19621;SDS011;9958;33.196;-97.114;2022-12-07T04:44:18;5.82;;;4.63;;
19621;SDS011;9958;33.196;-97.114;2022-12-07T04:46:47;6.85;;;4.72;;
19621;SDS011;9958;33.196;-97.114;2022-12-07T04:49:16;5.80;;;4.85;;
19621;SDS011;9958;33.196;-97.114;2022-12-07T04:51:45;6.63;;;4.93;;
19621;SDS011;9958;33.196;-97.114;2022-12-07T04:54:15;6.00;;;4.95;;
19621;SDS011;9958;33.196;-97.114;2022-12-07T04:56:44;6.50;;;4.82;;
19621;SDS011;9958;33.196;-97.114;2022-12-07T04:59:14;7.45;;;5.32;;
19621;SDS011;9958;33.196;-97.114;2022-12-07T05:01:43;5.95;;;4.55;;
19621;SDS011;9958;33.196;-97.114;2022-12-07T05:04:11;4.90;;;4.22;;
19621;SDS011;9958;33.196;-97.114;2022-12-07T05:06:41;6.95;;;4.70;;
19621;SDS011;9958;33.196;-97.114;2022-12-07T05:09:09;9.48;;;5.05;;
19621;SDS011;9958;33.196;-97.114;2022-12-07T05:11:39;7.93;;;4.88;;
19621;SDS011;9958;33.196;-97.114;2022-12-07T05:14:09;6.10;;;4.53;;
19621;SDS011;9958;33.196;-97.114;2022-12-07T05:16:39;5.20;;;4.03;;
19621;SDS011;9958;33.196;-97.114;2022-12-07T05:19:08;7.47;;;5.07;;
19621;SDS011;9958;33.196;-97.114;2022-12-07T05:21:37;5.55;;;4.35;;
19621;SDS011;9958;33.196;-97.114;2022-12-07T05:24:06;7.10;;;4.82;;
19621;SDS011;9958;33.196;-97.114;2022-12-07T05:26:37;6.63;;;4.75;;
19621;SDS011;9958;33.196;-97.114;2022-12-07T05:29:07;7.05;;;4.90;;
19621;SDS011;9958;33.196;-97.114;2022-12-07T05:31:37;6.15;;;4.85;;
19621;SDS011;9958;33.196;-97.114;2022-12-07T05:34:06;5.30;;;4.40;;
19621;SDS011;9958;33.196;-97.114;2022-12-07T05:36:34;5.00;;;4.30;;
19621;SDS011;9958;33.196;-97.114;2022-12-07T05:39:03;6.68;;;5.10;;
19621;SDS011;9958;33.196;-97.114;2022-12-07T05:41:31;7.30;;;4.80;;
19621;SDS011;9958;33.196;-97.114;2022-12-07T05:44:18;7.22;;;4.70;;
19621;SDS011;9958;33.196;-97.114;2022-12-07T05:46:46;5.80;;;4.63;;
19621;SDS011;9958;33.196;-97.114;2022-12-07T05:49:15;8.18;;;4.18;;
19621;SDS011;9958;33.196;-97.114;2022-12-07T05:51:43;4.88;;;4.38;;
19621;SDS011;9958;33.196;-97.114;2022-12-07T05:54:11;5.25;;;4.25;;
19621;SDS011;9958;33.196;-97.114;2022-12-07T05:56:40;5.25;;;4.50;;
19621;SDS011;9958;33.196;-97.114;2022-12-07T05:59:08;5.05;;;4.32;;
19621;SDS011;9958;33.196;-97.114;2022-12-07T06:01:54;6.93;;;4.28;;
19621;SDS011;9958;33.196;-97.114;2022-12-07T06:04:23;6.28;;;4.10;;
19621;SDS011;9958;33.196;-97.114;2022-12-07T06:06:52;5.60;;;4.45;;
19621;SDS011;9958;33.196;-97.114;2022-12-07T06:09:21;6.35;;;4.22;;
19621;SDS011;9958;33.196;-97.114;2022-12-07T06:11:51;5.30;;;4.40;;
19621;SDS011;9958;33.196;-97.114;2022-12-07T06:14:36;9.05;;;4.40;;
19621;SDS011;9958;33.196;-97.114;2022-12-07T06:17:06;6.35;;;4.13;;
19621;SDS011;9958;33.196;-97.114;2022-12-07T06:19:35;7.07;;;4.85;;
19621;SDS011;9958;33.196;-97.114;2022-12-07T06:22:03;5.68;;;4.10;;
19621;SDS011;9958;33.196;-97.114;2022-12-07T06:24:32;6.55;;;4.00;;
19621;SDS011;9958;33.196;-97.114;2022-12-07T06:27:01;5.78;;;4.28;;
19621;SDS011;9958;33.196;-97.114;2022-12-07T06:29:29;5.50;;;4.10;;
19621;SDS011;9958;33.196;-97.114;2022-12-07T06:31:57;6.43;;;4.50;;
19621;SDS011;9958;33.196;-97.114;2022-12-07T06:34:27;5.38;;;3.80;;
19621;SDS011;9958;33.196;-97.114;2022-12-07T06:36:56;6.57;;;4.43;;
19621;SDS011;9958;33.196;-97.114;2022-12-07T06:39:24;5.38;;;3.90;;
19621;SDS011;9958;33.196;-97.114;2022-12-07T06:41:53;5.93;;;4.05;;
19621;SDS011;9958;33.196;-97.114;2022-12-07T06:44:22;6.15;;;4.25;;
19621;SDS011;9958;33.196;-97.114;2022-12-07T06:46:51;7.25;;;4.65;;
19621;SDS011;9958;33.196;-97.114;2022-12-07T06:49:19;5.50;;;4.47;;
19621;SDS011;9958;33.196;-97.114;2022-12-07T06:51:49;6.20;;;4.38;;
19621;SDS011;9958;33.196;-97.114;2022-12-07T06:54:18;5.75;;;3.53;;
19621;SDS011;9958;33.196;-97.114;2022-12-07T06:56:46;6.65;;;4.07;;
19621;SDS011;9958;33.196;-97.114;2022-12-07T06:59:14;6.78;;;4.45;;
19621;SDS011;9958;33.196;-97.114;2022-12-07T07:01:43;5.82;;;4.35;;
19621;SDS011;9958;33.196;-97.114;2022-12-07T07:04:11;5.97;;;4.75;;
19621;SDS011;9958;33.196;-97.114;2022-12-07T07:06:39;5.75;;;4.32;;
19621;SDS011;9958;33.196;-97.114;2022-12-07T07:09:09;5.63;;;4.25;;
19621;SDS011;9958;33.196;-97.114;2022-12-07T07:11:37;6.30;;;4.18;;
19621;SDS011;9958;33.196;-97.114;2022-12-07T07:14:06;5.70;;;4.25;;
19621;SDS011;9958;33.196;-97.114;2022-12-07T07:16:34;4.53;;;3.95;;
19621;SDS011;9958;33.196;-97.114;2022-12-07T07:19:02;5.07;;;3.72;;
19621;SDS011;9958;33.196;-97.114;2022-12-07T07:21:30;6.65;;;4.18;;
19621;SDS011;9958;33.196;-97.114;2022-12-07T07:23:59;5.05;;;4.38;;
19621;SDS011;9958;33.196;-97.114;2022-12-07T07:26:29;4.40;;;3.63;;
19621;SDS011;9958;33.196;-97.114;2022-12-07T07:28:57;5.05;;;3.97;;
19621;SDS011;9958;33.196;-97.114;2022-12-07T07:31:25;4.70;;;3.80;;
19621;SDS011;9958;33.196;-97.114;2022-12-07T07:33:53;4.78;;;3.90;;
19621;SDS011;9958;33.196;-97.114;2022-12-07T07:36:22;5.03;;;3.75;;
19621;SDS011;9958;33.196;-97.114;2022-12-07T07:38:50;6.90;;;3.78;;
19621;SDS011;9958;33.196;-97.114;2022-12-07T07:41:18;5.55;;;3.70;;
19621;SDS011;9958;33.196;-97.114;2022-12-07T07:43:48;4.85;;;3.70;;
19621;SDS011;9958;33.196;-97.114;2022-12-07T07:46:17;5.25;;;4.38;;
19621;SDS011;9958;33.196;-97.114;2022-12-07T07:48:45;5.28;;;3.85;;
19621;SDS011;9958;33.196;-97.114;2022-12-07T07:51:13;4.65;;;3.90;;
19621;SDS011;9958;33.196;-97.114;2022-12-07T07:53:41;6.90;;;4.00;;
19621;SDS011;9958;33.196;-97.114;2022-12-07T07:56:10;5.35;;;3.53;;
19621;SDS011;9958;33.196;-97.114;2022-12-07T07:58:38;4.07;;;3.60;;
19621;SDS011;9958;33.196;-97.114;2022-12-07T08:01:08;4.38;;;3.70;;
19621;SDS011;9958;33.196;-97.114;2022-12-07T08:03:36;4.38;;;3.75;;
19621;SDS011;9958;33.196;-97.114;2022-12-07T08:06:05;4.72;;;3.63;;
19621;SDS011;9958;33.196;-97.114;2022-12-07T08:08:33;4.90;;;3.50;;
19621;SDS011;9958;33.196;-97.114;2022-12-07T08:11:04;4.22;;;3.40;;
19621;SDS011;9958;33.196;-97.114;2022-12-07T08:13:33;5.32;;;3.85;;
19621;SDS011;9958;33.196;-97.114;2022-12-07T08:16:03;3.80;;;3.42;;
19621;SDS011;9958;33.196;-97.114;2022-12-07T08:18:36;7.50;;;3.80;;
19621;SDS011;9958;33.196;-97.114;2022-12-07T08:21:05;5.90;;;3.47;;
19621;SDS011;9958;33.196;-97.114;2022-12-07T08:23:34;4.30;;;3.28;;
19621;SDS011;9958;33.196;-97.114;2022-12-07T08:26:03;3.97;;;3.60;;
19621;SDS011;9958;33.196;-97.114;2022-12-07T08:28:32;5.70;;;3.85;;
19621;SDS011;9958;33.196;-97.114;2022-12-07T08:31:01;5.72;;;4.40;;
19621;SDS011;9958;33.196;-97.114;2022-12-07T08:33:30;5.13;;;3.75;;
19621;SDS011;9958;33.196;-97.114;2022-12-07T08:36:01;5.57;;;3.88;;
19621;SDS011;9958;33.196;-97.114;2022-12-07T08:38:31;4.07;;;3.60;;
19621;SDS011;9958;33.196;-97.114;2022-12-07T08:40:59;4.18;;;3.50;;
19621;SDS011;9958;33.196;-97.114;2022-12-07T08:43:27;4.45;;;4.05;;
19621;SDS011;9958;33.196;-97.114;2022-12-07T08:45:58;5.53;;;3.88;;
19621;SDS011;9958;33.196;-97.114;2022-12-07T08:48:33;4.38;;;3.28;;
19621;SDS011;9958;33.196;-97.114;2022-12-07T08:51:07;4.35;;;3.75;;
19621;SDS011;9958;33.196;-97.114;2022-12-07T08:53:35;5.00;;;3.65;;
19621;SDS011;9958;33.196;-97.114;2022-12-07T08:56:05;5.10;;;3.63;;
19621;SDS011;9958;33.196;-97.114;2022-12-07T08:58:34;3.90;;;3.30;;
19621;SDS011;9958;33.196;-97.114;2022-12-07T09:01:04;3.95;;;3.55;;
19621;SDS011;9958;33.196;-97.114;2022-12-07T09:03:32;4.82;;;3.88;;
19621;SDS011;9958;33.196;-97.114;2022-12-07T09:06:01;4.38;;;3.85;;
19621;SDS011;9958;33.196;-97.114;2022-12-07T09:08:33;4.63;;;3.70;;
19621;SDS011;9958;33.196;-97.114;2022-12-07T09:11:05;3.47;;;3.17;;
19621;SDS011;9958;33.196;-97.114;2022-12-07T09:13:33;6.63;;;4.03;;
19621;SDS011;9958;33.196;-97.114;2022-12-07T09:16:02;5.13;;;4.07;;
19621;SDS011;9958;33.196;-97.114;2022-12-07T09:18:30;5.38;;;3.30;;
19621;SDS011;9958;33.196;-97.114;2022-12-07T09:20:59;5.93;;;3.72;;
19621;SDS011;9958;33.196;-97.114;2022-12-07T09:23:27;5.22;;;3.50;;
19621;SDS011;9958;33.196;-97.114;2022-12-07T09:26:00;4.07;;;3.28;;
19621;SDS011;9958;33.196;-97.114;2022-12-07T09:28:30;3.40;;;3.10;;
19621;SDS011;9958;33.196;-97.114;2022-12-07T09:30:58;4.35;;;3.35;;
19621;SDS011;9958;33.196;-97.114;2022-12-07T09:33:27;4.47;;;3.72;;
19621;SDS011;9958;33.196;-97.114;2022-12-07T09:35:55;3.55;;;3.10;;
19621;SDS011;9958;33.196;-97.114;2022-12-07T09:38:23;3.63;;;3.33;;
19621;SDS011;9958;33.196;-97.114;2022-12-07T09:40:52;3.75;;;3.05;;
19621;SDS011;9958;33.196;-97.114;2022-12-07T09:43:24;6.90;;;3.08;;
19621;SDS011;9958;33.196;-97.114;2022-12-07T09:45:53;5.00;;;4.00;;
19621;SDS011;9958;33.196;-97.114;2022-12-07T09:48:30;5.85;;;3.30;;
19621;SDS011;9958;33.196;-97.114;2022-12-07T09:51:02;3.67;;;3.33;;
19621;SDS011;9958;33.196;-97.114;2022-12-07T09:53:40;4.65;;;3.00;;
19621;SDS011;9958;33.196;-97.114;2022-12-07T09:56:11;4.72;;;3.47;;
19621;SDS011;9958;33.196;-97.114;2022-12-07T09:58:42;6.18;;;3.75;;
19621;SDS011;9958;33.196;-97.114;2022-12-07T10:01:12;3.67;;;3.03;;
19621;SDS011;9958;33.196;-97.114;2022-12-07T10:03:43;4.45;;;3.28;;
19621;SDS011;9958;33.196;-97.114;2022-12-07T10:06:16;4.50;;;3.15;;
19621;SDS011;9958;33.196;-97.114;2022-12-07T10:08:45;3.45;;;3.15;;
19621;SDS011;9958;33.196;-97.114;2022-12-07T10:11:13;3.83;;;3.00;;
19621;SDS011;9958;33.196;-97.114;2022-12-07T10:13:43;3.17;;;2.83;;
19621;SDS011;9958;33.196;-97.114;2022-12-07T10:19:17;3.58;;;3.28;;
19621;SDS011;9958;33.196;-97.114;2022-12-07T10:24:36;4.95;;;2.53;;
19621;SDS011;9958;33.196;-97.114;2022-12-07T10:27:16;4.15;;;3.17;;
19621;SDS011;9958;33.196;-97.114;2022-12-07T10:29:49;3.22;;;2.78;;
19621;SDS011;9958;33.196;-97.114;2022-12-07T10:32:27;2.97;;;2.78;;
19621;SDS011;9958;33.196;-97.114;2022-12-07T10:37:48;3.53;;;2.88;;
19621;SDS011;9958;33.196;-97.114;2022-12-07T10:40:28;4.07;;;2.92;;
19621;SDS011;9958;33.196;-97.114;2022-12-07T10:43:03;4.30;;;3.60;;
19621;SDS011;9958;33.196;-97.114;2022-12-07T10:45:43;4.63;;;2.97;;
19621;SDS011;9958;33.196;-97.114;2022-12-07T10:48:36;3.03;;;2.72;;
19621;SDS011;9958;33.196;-97.114;2022-12-07T10:51:09;4.43;;;2.90;;
19621;SDS011;9958;33.196;-97.114;2022-12-07T10:53:48;3.75;;;3.22;;
19621;SDS011;9958;33.196;-97.114;2022-12-07T10:56:31;4.30;;;3.15;;
19621;SDS011;9958;33.196;-97.114;2022-12-07T10:59:20;3.03;;;2.65;;
19621;SDS011;9958;33.196;-97.114;2022-12-07T11:02:23;3.25;;;2.72;;
19621;SDS011;9958;33.196;-97.114;2022-12-07T11:05:02;3.92;;;2.75;;
19621;SDS011;9958;33.196;-97.114;2022-12-07T11:07:45;5.25;;;3.38;;
19621;SDS011;9958;33.196;-97.114;2022-12-07T11:10:21;3.08;;;2.78;;
19621;SDS011;9958;33.196;-97.114;2022-12-07T11:13:04;3.40;;;2.88;;
19621;SDS011;9958;33.196;-97.114;2022-12-07T11:16:02;4.10;;;3.13;;
19621;SDS011;9958;33.196;-97.114;2022-12-07T11:18:51;3.22;;;2.70;;
19621;SDS011;9958;33.196;-97.114;2022-12-07T11:21:35;3.40;;;2.95;;
19621;SDS011;9958;33.196;-97.114;2022-12-07T11:24:10;3.28;;;2.92;;
19621;SDS011;9958;33.196;-97.114;2022-12-07T11:26:50;4.70;;;2.80;;
19621;SDS011;9958;33.196;-97.114;2022-12-07T11:29:33;2.58;;;2.38;;
19621;SDS011;9958;33.196;-97.114;2022-12-07T11:32:15;2.83;;;2.58;;
19621;SDS011;9958;33.196;-97.114;2022-12-07T11:34:51;3.38;;;2.85;;
19621;SDS011;9958;33.196;-97.114;2022-12-07T11:37:28;3.55;;;2.83;;
19621;SDS011;9958;33.196;-97.114;2022-12-07T11:39:59;3.05;;;2.75;;
19621;SDS011;9958;33.196;-97.114;2022-12-07T11:42:31;4.35;;;3.13;;
19621;SDS011;9958;33.196;-97.114;2022-12-07T11:45:10;3.55;;;2.67;;
19621;SDS011;9958;33.196;-97.114;2022-12-07T11:47:43;3.50;;;3.05;;
19621;SDS011;9958;33.196;-97.114;2022-12-07T11:50:22;4.65;;;3.10;;
19621;SDS011;9958;33.196;-97.114;2022-12-07T11:52:55;3.60;;;3.13;;
19621;SDS011;9958;33.196;-97.114;2022-12-07T11:55:27;3.58;;;3.13;;
19621;SDS011;9958;33.196;-97.114;2022-12-07T11:58:08;4.68;;;3.05;;
19621;SDS011;9958;33.196;-97.114;2022-12-07T12:00:46;3.38;;;3.08;;
19621;SDS011;9958;33.196;-97.114;2022-12-07T12:03:17;5.00;;;3.03;;
19621;SDS011;9958;33.196;-97.114;2022-12-07T12:05:57;3.83;;;3.15;;
19621;SDS011;9958;33.196;-97.114;2022-12-07T12:08:26;4.00;;;3.28;;
19621;SDS011;9958;33.196;-97.114;2022-12-07T12:11:00;3.80;;;2.55;;
19621;SDS011;9958;33.196;-97.114;2022-12-07T12:16:38;3.92;;;3.33;;
19621;SDS011;9958;33.196;-97.114;2022-12-07T12:19:31;4.30;;;3.15;;
19621;SDS011;9958;33.196;-97.114;2022-12-07T12:22:07;3.70;;;2.92;;
19621;SDS011;9958;33.196;-97.114;2022-12-07T12:24:41;3.78;;;3.08;;
19621;SDS011;9958;33.196;-97.114;2022-12-07T12:27:24;4.65;;;2.97;;
19621;SDS011;9958;33.196;-97.114;2022-12-07T12:29:55;3.58;;;3.15;;
19621;SDS011;9958;33.196;-97.114;2022-12-07T12:32:30;3.70;;;3.22;;
19621;SDS011;9958;33.196;-97.114;2022-12-07T12:35:22;3.33;;;3.03;;
19621;SDS011;9958;33.196;-97.114;2022-12-07T12:40:59;3.60;;;3.25;;
19621;SDS011;9958;33.196;-97.114;2022-12-07T12:43:43;4.55;;;3.78;;
19621;SDS011;9958;33.196;-97.114;2022-12-07T12:55:24;4.28;;;3.45;;
19621;SDS011;9958;33.196;-97.114;2022-12-07T12:58:34;4.95;;;3.45;;
19621;SDS011;9958;33.196;-97.114;2022-12-07T13:04:01;4.53;;;3.28;;
19621;SDS011;9958;33.196;-97.114;2022-12-07T13:06:34;5.35;;;3.15;;
19621;SDS011;9958;33.196;-97.114;2022-12-07T13:09:15;5.05;;;3.25;;
19621;SDS011;9958;33.196;-97.114;2022-12-07T13:11:50;5.18;;;3.60;;
19621;SDS011;9958;33.196;-97.114;2022-12-07T13:23:26;4.30;;;3.58;;
19621;SDS011;9958;33.196;-97.114;2022-12-07T13:28:46;5.13;;;3.67;;
19621;SDS011;9958;33.196;-97.114;2022-12-07T13:31:22;6.80;;;3.80;;
19621;SDS011;9958;33.196;-97.114;2022-12-07T13:33:58;5.80;;;3.92;;
19621;SDS011;9958;33.196;-97.114;2022-12-07T13:36:27;7.43;;;3.40;;
19621;SDS011;9958;33.196;-97.114;2022-12-07T13:39:10;7.38;;;3.80;;
19621;SDS011;9958;33.196;-97.114;2022-12-07T13:41:46;7.53;;;3.95;;
19621;SDS011;9958;33.196;-97.114;2022-12-07T13:44:19;7.63;;;3.75;;
19621;SDS011;9958;33.196;-97.114;2022-12-07T13:46:53;7.25;;;3.60;;
19621;SDS011;9958;33.196;-97.114;2022-12-07T13:49:32;6.70;;;4.05;;
19621;SDS011;9958;33.196;-97.114;2022-12-07T13:52:13;9.30;;;4.35;;
19621;SDS011;9958;33.196;-97.114;2022-12-07T13:54:46;6.43;;;3.78;;
19621;SDS011;9958;33.196;-97.114;2022-12-07T13:57:16;10.63;;;4.32;;
19621;SDS011;9958;33.196;-97.114;2022-12-07T13:59:46;8.02;;;4.43;;
19621;SDS011;9958;33.196;-97.114;2022-12-07T14:02:18;6.22;;;4.38;;
19621;SDS011;9958;33.196;-97.114;2022-12-07T14:04:48;9.60;;;3.88;;
19621;SDS011;9958;33.196;-97.114;2022-12-07T14:07:21;10.23;;;4.05;;
19621;SDS011;9958;33.196;-97.114;2022-12-07T14:09:55;6.75;;;4.30;;
19621;SDS011;9958;33.196;-97.114;2022-12-07T14:12:25;7.20;;;4.47;;
19621;SDS011;9958;33.196;-97.114;2022-12-07T14:14:57;11.07;;;4.50;;
19621;SDS011;9958;33.196;-97.114;2022-12-07T14:17:27;7.82;;;4.20;;
19621;SDS011;9958;33.196;-97.114;2022-12-07T14:19:55;8.20;;;4.90;;
19621;SDS011;9958;33.196;-97.114;2022-12-07T14:22:26;11.98;;;4.07;;
19621;SDS011;9958;33.196;-97.114;2022-12-07T14:25:00;8.85;;;4.15;;
19621;SDS011;9958;33.196;-97.114;2022-12-07T14:27:39;13.13;;;4.55;;
19621;SDS011;9958;33.196;-97.114;2022-12-07T14:30:17;8.95;;;4.43;;
19621;SDS011;9958;33.196;-97.114;2022-12-07T14:32:46;7.22;;;4.40;;
19621;SDS011;9958;33.196;-97.114;2022-12-07T14:35:18;10.98;;;4.75;;
19621;SDS011;9958;33.196;-97.114;2022-12-07T14:37:47;11.38;;;4.35;;
19621;SDS011;9958;33.196;-97.114;2022-12-07T14:40:17;11.82;;;5.10;;
19621;SDS011;9958;33.196;-97.114;2022-12-07T14:42:49;14.35;;;5.05;;
19621;SDS011;9958;33.196;-97.114;2022-12-07T14:45:21;10.48;;;5.38;;
19621;SDS011;9958;33.196;-97.114;2022-12-07T14:47:50;10.10;;;4.45;;
19621;SDS011;9958;33.196;-97.114;2022-12-07T14:50:19;12.77;;;5.20;;
19621;SDS011;9958;33.196;-97.114;2022-12-07T14:52:49;9.63;;;4.95;;
19621;SDS011;9958;33.196;-97.114;2022-12-07T14:55:23;11.90;;;4.50;;
19621;SDS011;9958;33.196;-97.114;2022-12-07T14:57:52;8.10;;;4.25;;
19621;SDS011;9958;33.196;-97.114;2022-12-07T15:00:23;13.43;;;4.68;;
19621;SDS011;9958;33.196;-97.114;2022-12-07T15:02:54;10.05;;;5.00;;
19621;SDS011;9958;33.196;-97.114;2022-12-07T15:05:23;13.77;;;5.18;;
19621;SDS011;9958;33.196;-97.114;2022-12-07T15:07:51;12.35;;;4.78;;
19621;SDS011;9958;33.196;-97.114;2022-12-07T15:10:20;13.40;;;5.45;;
19621;SDS011;9958;33.196;-97.114;2022-12-07T15:12:50;15.20;;;5.63;;
19621;SDS011;9958;33.196;-97.114;2022-12-07T15:15:18;13.40;;;5.45;;
19621;SDS011;9958;33.196;-97.114;2022-12-07T15:17:48;11.77;;;4.68;;
19621;SDS011;9958;33.196;-97.114;2022-12-07T15:20:16;11.30;;;5.43;;
19621;SDS011;9958;33.196;-97.114;2022-12-07T15:22:44;14.30;;;4.93;;
19621;SDS011;9958;33.196;-97.114;2022-12-07T15:25:13;12.50;;;5.20;;
19621;SDS011;9958;33.196;-97.114;2022-12-07T15:27:42;17.05;;;5.53;;
19621;SDS011;9958;33.196;-97.114;2022-12-07T15:30:10;16.85;;;6.20;;
19621;SDS011;9958;33.196;-97.114;2022-12-07T15:32:39;17.63;;;6.05;;
19621;SDS011;9958;33.196;-97.114;2022-12-07T15:35:09;16.50;;;6.13;;
19621;SDS011;9958;33.196;-97.114;2022-12-07T15:37:37;16.73;;;6.30;;
19621;SDS011;9958;33.196;-97.114;2022-12-07T15:40:06;12.25;;;4.97;;
19621;SDS011;9958;33.196;-97.114;2022-12-07T15:42:35;18.27;;;6.22;;
19621;SDS011;9958;33.196;-97.114;2022-12-07T15:45:04;16.38;;;6.13;;